createdAt,value
2019-05-23T00:01:19.338Z,100334.18
2019-05-23T00:04:22.151Z,100336.70
2019-05-23T00:07:15.029Z,100340.16
2019-05-23T00:10:07.843Z,100336.35
2019-05-23T00:13:02.163Z,100339.95
2019-05-23T00:15:42.411Z,100334.72
2019-05-23T00:18:14.486Z,100333.41
2019-05-23T00:20:47.238Z,100340.59
2019-05-23T00:23:19.717Z,100343.45
2019-05-23T00:25:53.072Z,100346.80
2019-05-23T00:28:25.957Z,100346.59
2019-05-23T00:31:08.229Z,100338.84
2019-05-23T00:33:43.574Z,100343.50
2019-05-23T00:36:16.974Z,100344.67
2019-05-23T00:38:50.159Z,100334.66
2019-05-23T00:41:24.026Z,100338.34
2019-05-23T00:43:56.424Z,100334.66
2019-05-23T00:46:30.429Z,100331.20
2019-05-23T00:49:04.463Z,100327.14
2019-05-23T00:51:38.596Z,100327.50
2019-05-23T00:54:11.397Z,100322.27
2019-05-23T00:56:44.919Z,100321.88
2019-05-23T00:59:26.562Z,100319.64
2019-05-23T01:01:51.312Z,100315.58
2019-05-23T01:04:26.635Z,100317.36
2019-05-23T01:06:59.908Z,100319.16
2019-05-23T01:09:33.767Z,100311.30
2019-05-23T01:12:08.334Z,100311.41
2019-05-23T01:14:43.468Z,100308.17
2019-05-23T01:17:19.477Z,100302.81
2019-05-23T01:19:51.918Z,100304.73
2019-05-23T01:22:25.810Z,100294.11
2019-05-23T01:25:14.302Z,100287.31
2019-05-23T01:27:49.104Z,100290.28
2019-05-23T01:30:28.070Z,100286.83
2019-05-23T01:33:02.975Z,100294.00
2019-05-23T01:35:36.132Z,100291.71
2019-05-23T01:38:08.764Z,100286.33
2019-05-23T01:40:41.676Z,100283.48
2019-05-23T01:43:14.942Z,100284.78
2019-05-23T01:45:47.606Z,100279.20
2019-05-23T01:48:20.808Z,100282.30
2019-05-23T01:50:53.299Z,100276.05
2019-05-23T01:53:26.594Z,100281.09
2019-05-23T01:56:01.410Z,100282.88
2019-05-23T01:58:33.539Z,100284.42
2019-05-23T02:01:06.289Z,100279.08
2019-05-23T02:03:38.278Z,100283.19
2019-05-23T02:06:11.423Z,100285.82
2019-05-23T02:08:45.091Z,100293.70
2019-05-23T02:11:19.638Z,100290.09
2019-05-23T02:13:54.363Z,100283.56
2019-05-23T02:16:27.005Z,100278.08
2019-05-23T02:18:59.516Z,100277.23
2019-05-23T02:21:31.763Z,100274.64
2019-05-23T02:24:07.412Z,100275.61
2019-05-23T02:26:43.061Z,100273.69
2019-05-23T02:29:16.052Z,100281.08
2019-05-23T02:31:48.732Z,100284.45
2019-05-23T02:34:21.028Z,100284.68
2019-05-23T02:36:54.662Z,100284.20
2019-05-23T02:39:53.366Z,100288.97
2019-05-23T02:42:51.336Z,100290.75
2019-05-23T02:45:31.050Z,100288.81
2019-05-23T02:48:17.947Z,100296.23
2019-05-23T02:50:56.486Z,100296.97
2019-05-23T02:53:33.295Z,100299.96
2019-05-23T02:56:10.123Z,100296.50
2019-05-23T02:59:10.161Z,100293.51
2019-05-23T03:01:57.184Z,100303.17
2019-05-23T03:04:33.712Z,100309.38
2019-05-23T03:07:08.034Z,100304.11
2019-05-23T03:09:40.878Z,100294.95
2019-05-23T03:12:15.838Z,100301.87
2019-05-23T03:14:49.155Z,100298.75
2019-05-23T03:17:25.567Z,100307.45
2019-05-23T03:20:03.199Z,100300.40
2019-05-23T03:22:45.506Z,100293.53
2019-05-23T03:26:16.767Z,100287.55
2019-05-23T03:28:50.587Z,100294.84
2019-05-23T03:31:32.397Z,100304.17
2019-05-23T03:34:04.573Z,100308.57
2019-05-23T03:36:37.661Z,100308.55
2019-05-23T03:39:11.531Z,100290.50
2019-05-23T03:41:44.206Z,100287.89
2019-05-23T03:44:17.762Z,100290.58
2019-05-23T03:46:53.245Z,100291.50
2019-05-23T03:49:27.617Z,100287.83
2019-05-23T03:52:01.469Z,100288.64
2019-05-23T03:54:33.500Z,100276.83
2019-05-23T03:57:15.290Z,100276.41
2019-05-23T03:59:47.627Z,100278.68
2019-05-23T04:02:22.822Z,100296.23
2019-05-23T04:05:00.663Z,100308.89
2019-05-23T04:10:25.718Z,100315.53
2019-05-23T04:13:02.134Z,100309.69
2019-05-23T04:15:36.958Z,100300.40
2019-05-23T04:18:09.015Z,100280.70
2019-05-23T04:20:42.008Z,100281.55
2019-05-23T04:23:14.306Z,100253.41
2019-05-23T04:25:46.511Z,100278.25
2019-05-23T04:28:21.858Z,100274.06
2019-05-23T04:30:54.270Z,100285.39
2019-05-23T04:33:28.321Z,100300.30
2019-05-23T04:36:00.472Z,100301.16
2019-05-23T04:38:36.424Z,100302.45
2019-05-23T04:41:08.170Z,100296.72
2019-05-23T04:43:40.318Z,100295.60
2019-05-23T04:46:12.608Z,100308.63
2019-05-23T04:48:45.509Z,100310.56
2019-05-23T04:51:17.772Z,100310.91
2019-05-23T04:53:50.000Z,100310.44
2019-05-23T04:56:22.090Z,100310.33
2019-05-23T04:58:54.489Z,100307.23
2019-05-23T05:01:27.640Z,100305.19
2019-05-23T05:04:00.145Z,100312.38
2019-05-23T05:06:32.302Z,100314.77
2019-05-23T05:09:08.327Z,100328.72
2019-05-23T05:11:40.422Z,100328.58
2019-05-23T05:14:12.552Z,100324.41
2019-05-23T05:16:48.063Z,100331.95
2019-05-23T05:19:20.357Z,100330.39
2019-05-23T05:21:54.581Z,100338.98
2019-05-23T05:24:26.640Z,100327.29
2019-05-23T05:26:59.980Z,100325.61
2019-05-23T05:29:32.141Z,100328.95
2019-05-23T05:32:04.567Z,100325.14
2019-05-23T05:34:37.342Z,100336.72
2019-05-23T05:37:09.343Z,100349.95
2019-05-23T05:39:41.521Z,100343.73
2019-05-23T05:42:15.502Z,100341.17
2019-05-23T05:44:47.836Z,100342.18
2019-05-23T05:47:20.985Z,100349.34
2019-05-23T05:49:53.000Z,100350.09
2019-05-23T05:52:25.342Z,100350.90
2019-05-23T05:55:00.835Z,100346.13
2019-05-23T05:57:31.034Z,100352.45
2019-05-23T06:00:04.190Z,100355.68
2019-05-23T06:02:36.261Z,100359.17
2019-05-23T06:05:10.188Z,100371.48
2019-05-23T06:07:43.710Z,100375.53
2019-05-23T06:10:16.788Z,100372.55
2019-05-23T06:12:48.840Z,100368.00
2019-05-23T06:15:23.056Z,100363.82
2019-05-23T06:17:57.166Z,100359.41
2019-05-23T06:20:29.885Z,100364.63
2019-05-23T06:23:03.622Z,100357.85
2019-05-23T06:25:35.595Z,100368.07
2019-05-23T06:28:11.020Z,100367.11
2019-05-23T06:30:46.859Z,100372.42
2019-05-23T06:33:23.827Z,100376.32
2019-05-23T06:35:54.356Z,100382.64
2019-05-23T06:38:27.677Z,100377.84
2019-05-23T06:41:02.441Z,100383.66
2019-05-23T06:43:36.050Z,100379.92
2019-05-23T06:46:12.117Z,100378.70
2019-05-23T06:48:45.799Z,100380.83
2019-05-23T06:51:18.029Z,100376.86
2019-05-23T06:53:50.561Z,100379.69
2019-05-23T06:56:22.671Z,100383.42
2019-05-23T06:58:54.659Z,100374.48
2019-05-23T07:01:29.391Z,100381.02
2019-05-23T07:04:02.433Z,100377.36
2019-05-23T07:06:34.621Z,100383.23
2019-05-23T07:09:12.674Z,100381.27
2019-05-23T07:11:45.026Z,100382.03
2019-05-23T07:14:19.044Z,100375.55
2019-05-23T07:16:51.610Z,100377.74
2019-05-23T07:19:23.850Z,100376.59
2019-05-23T07:21:57.711Z,100375.39
2019-05-23T07:24:30.171Z,100381.59
2019-05-23T07:27:04.790Z,100376.00
2019-05-23T07:29:38.528Z,100387.02
2019-05-23T07:32:11.319Z,100380.09
2019-05-23T07:34:46.076Z,100392.60
2019-05-23T07:37:18.277Z,100387.31
2019-05-23T07:39:50.281Z,100393.79
2019-05-23T07:42:24.917Z,100399.28
2019-05-23T07:44:58.772Z,100396.80
2019-05-23T07:47:30.937Z,100398.20
2019-05-23T07:50:03.663Z,100406.55
2019-05-23T07:52:35.997Z,100411.13
2019-05-23T07:55:13.460Z,100411.79
2019-05-23T07:57:45.637Z,100413.52
2019-05-23T08:00:22.529Z,100416.41
2019-05-23T08:02:54.750Z,100418.88
2019-05-23T08:05:27.016Z,100417.17
2019-05-23T08:07:59.401Z,100415.05
2019-05-23T08:10:34.197Z,100415.05
2019-05-23T08:13:06.005Z,100426.82
2019-05-23T08:15:38.999Z,100431.48
2019-05-23T08:18:11.874Z,100426.13
2019-05-23T08:20:45.364Z,100432.80
2019-05-23T08:23:17.418Z,100430.37
2019-05-23T08:25:52.138Z,100428.12
2019-05-23T08:28:26.265Z,100430.69
2019-05-23T08:30:58.735Z,100429.89
2019-05-23T08:33:30.875Z,100441.37
2019-05-23T08:36:03.744Z,100442.30
2019-05-23T08:38:36.766Z,100448.70
2019-05-23T08:41:08.875Z,100447.75
2019-05-23T08:43:42.876Z,100445.77
2019-05-23T08:46:15.166Z,100443.58
2019-05-23T08:48:47.268Z,100440.51
2019-05-23T08:51:19.664Z,100442.98
2019-05-23T08:53:51.780Z,100442.92
2019-05-23T08:56:23.931Z,100445.66
2019-05-23T08:58:56.026Z,100442.38
2019-05-23T09:01:28.489Z,100435.82
2019-05-23T09:04:02.354Z,100430.13
2019-05-23T09:06:34.599Z,100430.17
2019-05-23T09:09:28.341Z,100434.25
2019-05-23T09:11:45.162Z,100433.19
2019-05-23T09:14:19.147Z,100434.33
2019-05-23T09:16:52.540Z,100436.41
2019-05-23T09:19:24.872Z,100427.66
2019-05-23T09:21:58.204Z,100433.45
2019-05-23T09:24:30.519Z,100432.95
2019-05-23T09:27:02.461Z,100434.86
2019-05-23T09:29:36.787Z,100437.26
2019-05-23T09:32:09.728Z,100437.52
2019-05-23T09:34:41.712Z,100438.56
2019-05-23T09:37:14.076Z,100441.10
2019-05-23T09:39:46.025Z,100439.16
2019-05-23T09:42:18.489Z,100442.27
2019-05-23T09:44:50.609Z,100444.85
2019-05-23T09:47:22.580Z,100445.76
2019-05-23T09:49:55.231Z,100445.39
2019-05-23T09:52:30.729Z,100435.40
2019-05-23T09:55:02.998Z,100432.34
2019-05-23T09:57:35.242Z,100435.73
2019-05-23T10:00:09.453Z,100438.91
2019-05-23T10:02:41.446Z,100431.08
2019-05-23T10:05:13.994Z,100437.50
2019-05-23T10:07:46.047Z,100438.53
2019-05-23T10:10:18.817Z,100441.19
2019-05-23T10:12:51.055Z,100434.70
2019-05-23T10:15:33.669Z,100435.39
2019-05-23T10:18:06.078Z,100436.92
2019-05-23T10:20:38.446Z,100428.23
2019-05-23T10:23:11.945Z,100423.80
2019-05-23T10:25:44.112Z,100423.64
2019-05-23T10:28:16.989Z,100422.25
2019-05-23T10:30:49.325Z,100418.89
2019-05-23T10:33:21.378Z,100415.89
2019-05-23T10:36:00.588Z,100415.78
2019-05-23T10:38:29.490Z,100417.13
2019-05-23T10:41:02.927Z,100415.81
2019-05-23T10:43:35.144Z,100410.48
2019-05-23T10:46:07.824Z,100409.16
2019-05-23T10:48:41.206Z,100402.09
2019-05-23T10:51:13.669Z,100402.91
2019-05-23T10:53:45.684Z,100413.61
2019-05-23T10:56:20.689Z,100412.73
2019-05-23T10:58:52.134Z,100412.23
2019-05-23T11:01:24.930Z,100406.97
2019-05-23T11:03:57.024Z,100412.23
2019-05-23T11:06:30.090Z,100402.38
2019-05-23T11:09:02.594Z,100400.57
2019-05-23T11:11:34.860Z,100410.52
2019-05-23T11:14:09.020Z,100409.45
2019-05-23T11:16:42.203Z,100400.02
2019-05-23T11:19:14.859Z,100403.34
2019-05-23T11:21:49.526Z,100399.59
2019-05-23T11:24:21.971Z,100398.21
2019-05-23T11:26:54.180Z,100403.84
2019-05-23T11:29:27.405Z,100399.71
2019-05-23T11:32:00.432Z,100402.38
2019-05-23T11:34:34.315Z,100401.50
2019-05-23T11:37:06.414Z,100398.61
2019-05-23T11:39:42.067Z,100392.95
2019-05-23T11:42:12.439Z,100392.29
2019-05-23T11:44:44.853Z,100387.45
2019-05-23T11:47:17.092Z,100380.95
2019-05-23T11:49:50.751Z,100382.45
2019-05-23T11:52:22.920Z,100376.33
2019-05-23T11:54:59.993Z,100378.61
2019-05-23T11:57:31.971Z,100368.27
2019-05-23T12:00:06.061Z,100369.53
2019-05-23T12:02:41.531Z,100368.05
2019-05-23T12:05:22.173Z,100366.21
2019-05-23T12:07:54.320Z,100366.21
2019-05-23T12:10:28.408Z,100358.20
2019-05-23T12:13:00.477Z,100361.03
2019-05-23T12:15:34.092Z,100354.95
2019-05-23T12:18:08.103Z,100363.72
2019-05-23T12:20:40.169Z,100358.54
2019-05-23T12:23:12.416Z,100355.89
2019-05-23T12:25:44.587Z,100353.40
2019-05-23T12:28:16.591Z,100353.59
2019-05-23T12:30:48.666Z,100346.42
2019-05-23T12:33:20.969Z,100354.23
2019-05-23T12:35:53.191Z,100347.97
2019-05-23T12:38:25.637Z,100350.77
2019-05-23T12:40:58.968Z,100344.39
2019-05-23T12:43:30.984Z,100351.51
2019-05-23T12:46:03.020Z,100350.23
2019-05-23T12:48:43.049Z,100354.14
2019-05-23T12:51:16.644Z,100352.70
2019-05-23T12:53:51.303Z,100348.97
2019-05-23T12:56:24.109Z,100351.92
2019-05-23T12:58:56.542Z,100346.61
2019-05-23T13:01:32.854Z,100344.65
2019-05-23T13:04:10.235Z,100341.98
2019-05-23T13:06:42.167Z,100336.65
2019-05-23T13:09:14.285Z,100337.01
2019-05-23T13:11:46.512Z,100343.05
2019-05-23T13:14:18.865Z,100347.77
2019-05-23T13:16:51.138Z,100340.59
2019-05-23T13:19:24.178Z,100341.36
2019-05-23T13:21:56.252Z,100338.28
2019-05-23T13:24:28.425Z,100340.38
2019-05-23T13:27:00.511Z,100330.23
2019-05-23T13:29:32.893Z,100324.45
2019-05-23T13:32:05.369Z,100319.44
2019-05-23T13:34:37.939Z,100318.47
2019-05-23T13:37:16.445Z,100322.84
2019-05-23T13:39:46.330Z,100317.20
2019-05-23T13:42:18.859Z,100316.45
2019-05-23T13:44:50.913Z,100318.98
2019-05-23T13:47:23.011Z,100314.00
2019-05-23T13:49:55.098Z,100312.55
2019-05-23T13:52:27.275Z,100314.83
2019-05-23T13:54:59.340Z,100310.67
2019-05-23T13:57:31.600Z,100313.14
2019-05-23T14:00:03.960Z,100311.95
2019-05-23T14:02:36.178Z,100309.01
2019-05-23T14:05:11.319Z,100306.73
2019-05-23T14:07:43.644Z,100301.37
2019-05-23T14:10:17.031Z,100294.94
2019-05-23T14:12:49.045Z,100302.75
2019-05-23T14:15:23.475Z,100302.69
2019-05-23T14:17:55.644Z,100301.70
2019-05-23T14:20:27.701Z,100302.58
2019-05-23T14:23:04.573Z,100295.84
2019-05-23T14:25:37.128Z,100298.86
2019-05-23T14:28:10.257Z,100290.23
2019-05-23T14:30:59.203Z,100286.65
2019-05-23T14:33:53.134Z,100291.16
2019-05-23T14:36:46.949Z,100285.47
2019-05-23T14:39:25.900Z,100283.31
2019-05-23T14:42:06.913Z,100284.20
2019-05-23T14:44:39.412Z,100282.66
2019-05-23T14:47:34.955Z,100281.45
2019-05-23T14:50:40.485Z,100292.05
2019-05-23T14:53:16.047Z,100292.77
2019-05-23T14:55:49.393Z,100296.12
2019-05-23T14:58:22.868Z,100298.53
2019-05-23T15:00:57.309Z,100298.25
2019-05-23T15:03:29.630Z,100299.86
2019-05-23T15:06:01.681Z,100302.34
2019-05-23T15:08:49.679Z,100307.27
2019-05-23T15:11:10.959Z,100304.03
2019-05-23T15:13:44.473Z,100308.17
2019-05-23T15:16:18.566Z,100307.39
2019-05-23T15:18:50.530Z,100316.60
2019-05-23T15:21:22.505Z,100316.73
2019-05-23T15:23:54.878Z,100321.53
2019-05-23T15:26:26.987Z,100323.27
2019-05-23T15:28:58.971Z,100314.45
2019-05-23T15:31:31.328Z,100318.03
2019-05-23T15:34:03.374Z,100319.38
2019-05-23T15:36:35.380Z,100311.15
2019-05-23T15:39:10.688Z,100313.18
2019-05-23T15:41:43.554Z,100304.51
2019-05-23T15:44:25.147Z,100307.41
2019-05-23T15:46:49.691Z,100312.63
2019-05-23T15:49:21.959Z,100315.44
2019-05-23T15:52:18.800Z,100322.77
2019-05-23T15:54:55.141Z,100321.25
2019-05-23T15:57:44.609Z,100320.66
2019-05-23T16:00:39.989Z,100329.44
2019-05-23T16:03:31.509Z,100323.29
2019-05-23T16:06:05.190Z,100329.42
2019-05-23T16:08:40.122Z,100322.06
2019-05-23T16:11:17.283Z,100323.98
2019-05-23T16:13:47.205Z,100316.48
2019-05-23T16:16:19.360Z,100321.02
2019-05-23T16:18:51.670Z,100324.77
2019-05-23T16:21:26.181Z,100314.29
2019-05-23T16:23:59.401Z,100304.67
2019-05-23T16:26:32.095Z,100302.58
2019-05-23T16:29:05.375Z,100300.65
2019-05-23T16:31:37.513Z,100304.55
2019-05-23T16:34:09.732Z,100312.91
2019-05-23T16:36:42.291Z,100311.48
2019-05-23T16:39:14.441Z,100304.86
2019-05-23T16:41:46.576Z,100292.45
2019-05-23T16:44:18.887Z,100308.39
2019-05-23T16:46:52.852Z,100290.55
2019-05-23T16:49:26.688Z,100293.22
2019-05-23T16:52:00.004Z,100290.88
2019-05-23T16:54:38.881Z,100288.37
2019-05-23T16:57:32.795Z,100295.05
2019-05-23T17:00:33.493Z,100304.50
2019-05-23T17:03:27.401Z,100314.17
2019-05-23T17:06:08.713Z,100323.27
2019-05-23T17:09:05.927Z,100327.70
2019-05-23T17:11:59.957Z,100324.98
2019-05-23T17:14:52.022Z,100324.08
2019-05-23T17:18:02.903Z,100325.44
2019-05-23T17:20:50.304Z,100324.13
2019-05-23T17:23:34.842Z,100323.47
2019-05-23T17:26:20.520Z,100325.25
2019-05-23T17:28:54.432Z,100330.29
2019-05-23T17:31:32.561Z,100327.14
2019-05-23T17:34:07.164Z,100338.92
2019-05-23T17:36:39.263Z,100342.13
2019-05-23T17:39:15.502Z,100331.06
2019-05-23T17:41:49.100Z,100331.05
2019-05-23T17:44:21.551Z,100332.17
2019-05-23T17:46:53.635Z,100332.31
2019-05-23T17:49:25.758Z,100333.70
2019-05-23T17:52:02.949Z,100332.17
2019-05-23T17:54:34.355Z,100327.15
2019-05-23T17:57:09.249Z,100329.29
2019-05-23T17:59:41.478Z,100321.74
2019-05-23T18:02:14.666Z,100312.08
2019-05-23T18:04:47.203Z,100315.63
2019-05-23T18:07:20.522Z,100318.14
2019-05-23T18:09:52.988Z,100316.96
2019-05-23T18:12:26.747Z,100320.27
2019-05-23T18:15:00.893Z,100322.71
2019-05-23T18:17:34.302Z,100320.05
2019-05-23T18:20:12.591Z,100320.72
2019-05-23T18:22:44.012Z,100322.03
2019-05-23T18:25:19.596Z,100322.38
2019-05-23T18:27:51.780Z,100324.36
2019-05-23T18:30:45.514Z,100330.02
2019-05-23T18:33:21.064Z,100328.16
2019-05-23T18:35:56.555Z,100330.34
2019-05-23T18:38:28.974Z,100331.32
2019-05-23T18:41:04.373Z,100330.59
2019-05-23T18:43:35.059Z,100335.86
2019-05-23T18:46:15.387Z,100338.18
2019-05-23T18:48:47.636Z,100346.45
2019-05-23T18:51:20.000Z,100345.75
2019-05-23T18:53:52.073Z,100335.92
2019-05-23T18:56:24.084Z,100338.04
2019-05-23T18:58:56.439Z,100345.89
2019-05-23T19:01:34.624Z,100337.70
2019-05-23T19:04:07.235Z,100340.11
2019-05-23T19:06:42.267Z,100346.39
2019-05-23T19:09:16.431Z,100349.07
2019-05-23T19:11:49.212Z,100350.68
2019-05-23T19:14:21.295Z,100362.91
2019-05-23T19:16:55.438Z,100361.03
2019-05-23T19:19:28.120Z,100367.27
2019-05-23T19:22:00.090Z,100370.30
2019-05-23T19:24:32.266Z,100366.06
2019-05-23T19:27:10.155Z,100361.83
2019-05-23T19:29:42.175Z,100365.66
2019-05-23T19:32:14.905Z,100366.63
2019-05-23T19:34:47.062Z,100370.05
2019-05-23T19:37:19.314Z,100365.14
2019-05-23T19:39:51.418Z,100369.37
2019-05-23T19:42:24.341Z,100363.03
2019-05-23T19:44:58.322Z,100358.87
2019-05-23T19:47:30.807Z,100364.00
2019-05-23T19:50:04.561Z,100363.52
2019-05-23T19:52:38.617Z,100358.47
2019-05-23T19:55:10.786Z,100361.80
2019-05-23T19:57:43.070Z,100383.19
2019-05-23T20:00:18.309Z,100396.86
2019-05-23T20:02:53.521Z,100400.63
2019-05-23T20:05:30.570Z,100412.99
2019-05-23T20:08:04.733Z,100420.28
2019-05-23T20:10:40.351Z,100414.37
2019-05-23T20:13:12.501Z,100415.56
2019-05-23T20:15:46.160Z,100411.17
2019-05-23T20:18:18.954Z,100416.70
2019-05-23T20:20:51.519Z,100412.73
2019-05-23T20:23:23.759Z,100407.01
2019-05-23T20:25:57.764Z,100407.84
2019-05-23T20:28:30.332Z,100406.52
2019-05-23T20:31:02.605Z,100402.15
2019-05-23T20:33:37.038Z,100410.20
2019-05-23T20:36:12.995Z,100405.12
2019-05-23T20:38:45.917Z,100409.59
2019-05-23T20:41:18.323Z,100413.78
2019-05-23T20:43:52.317Z,100413.14
2019-05-23T20:46:24.371Z,100417.59
2019-05-23T20:48:58.599Z,100415.94
2019-05-23T20:51:31.567Z,100412.79
2019-05-23T20:54:03.584Z,100429.67
2019-05-23T20:56:36.034Z,100427.59
2019-05-23T20:59:09.324Z,100437.56
2019-05-23T21:01:42.650Z,100434.36
2019-05-23T21:04:14.726Z,100437.27
2019-05-23T21:06:46.786Z,100435.39
2019-05-23T21:09:21.858Z,100438.79
2019-05-23T21:11:53.957Z,100435.11
2019-05-23T21:14:26.149Z,100430.45
2019-05-23T21:17:00.896Z,100431.20
2019-05-23T21:19:33.065Z,100423.17
2019-05-23T21:22:15.913Z,100424.67
2019-05-23T21:24:49.520Z,100427.86
2019-05-23T21:27:24.564Z,100430.77
2019-05-23T21:29:56.793Z,100419.17
2019-05-23T21:32:30.383Z,100416.63
2019-05-23T21:35:02.591Z,100412.94
2019-05-23T21:37:34.566Z,100417.67
2019-05-23T21:40:22.288Z,100426.04
2019-05-23T21:42:57.228Z,100436.70
2019-05-23T21:45:29.325Z,100441.27
2019-05-23T21:48:01.462Z,100448.33
2019-05-23T21:50:33.486Z,100452.02
2019-05-23T21:53:05.758Z,100449.70
2019-05-23T21:55:40.545Z,100451.08
2019-05-23T21:58:14.104Z,100456.16
2019-05-23T22:01:38.555Z,100452.88
2019-05-23T22:04:35.013Z,100459.31
2019-05-23T22:07:08.161Z,100455.52
2019-05-23T22:09:41.089Z,100450.57
2019-05-23T22:12:15.203Z,100447.77
2019-05-23T22:14:48.103Z,100445.30
2019-05-23T22:17:22.509Z,100443.51
2019-05-23T22:19:54.667Z,100438.03
2019-05-23T22:22:27.258Z,100442.72
2019-05-23T22:24:59.333Z,100441.52
2019-05-23T22:27:31.969Z,100440.93
2019-05-23T22:30:05.893Z,100439.19
2019-05-23T22:32:39.380Z,100441.97
2019-05-23T22:35:17.696Z,100447.49
2019-05-23T22:37:49.819Z,100444.86
2019-05-23T22:40:21.782Z,100448.59
2019-05-23T22:42:58.199Z,100449.59
2019-05-23T22:45:31.076Z,100439.09
2019-05-23T22:48:04.986Z,100436.67
2019-05-23T22:50:41.204Z,100430.71
2019-05-23T22:53:13.205Z,100427.13
2019-05-23T22:55:45.254Z,100428.81
2019-05-23T22:58:17.326Z,100430.37
2019-05-23T23:00:50.372Z,100439.48
2019-05-23T23:03:22.433Z,100439.16
2019-05-23T23:05:57.750Z,100442.48
2019-05-23T23:08:32.418Z,100446.58
2019-05-23T23:11:05.854Z,100444.56
2019-05-23T23:13:39.328Z,100435.68
2019-05-23T23:16:11.737Z,100434.03
2019-05-23T23:18:43.904Z,100433.08
2019-05-23T23:21:16.045Z,100435.48
2019-05-23T23:23:48.032Z,100445.31
2019-05-23T23:26:20.070Z,100444.73
2019-05-23T23:28:52.749Z,100441.39
2019-05-23T23:31:24.947Z,100437.45
2019-05-23T23:33:57.082Z,100440.20
2019-05-23T23:36:29.069Z,100434.58
2019-05-23T23:39:01.337Z,100426.55
2019-05-23T23:41:35.585Z,100425.12
2019-05-23T23:44:08.887Z,100415.09
2019-05-23T23:46:58.525Z,100419.89
2019-05-23T23:49:50.789Z,100421.09
2019-05-23T23:52:40.270Z,100428.41
2019-05-23T23:55:31.143Z,100429.47
2019-05-23T23:58:02.643Z,100425.78
